| time (UTC) | temp F | wind direction | speed MPH | gust MPH | rain 1hr in | rain 24hr in | rain mn in | humidity % | barometer mb |
| 20260506214500 | 55 | 352 | 1.0 | 2.0 | 0.00 | 0.30 | 0.30 | 55 | 1011.2 |
| 20260506213957 | 55 | 343 | 3.0 | 6.0 | 0.00 | 0.30 | 0.30 | 53 | 1010.9 |
| 20260506213455 | 55 | 340 | 2.0 | 8.0 | 0.00 | 0.30 | 0.30 | 52 | 1011.0 |
| 20260506212952 | 55 | 345 | 2.0 | 9.0 | 0.00 | 0.30 | 0.30 | 54 | 1011.0 |
| 20260506212448 | 55 | 308 | 5.0 | 6.0 | 0.00 | 0.30 | 0.30 | 54 | 1010.9 |
| 20260506211943 | 55 | 292 | 5.0 | 7.0 | 0.00 | 0.30 | 0.30 | 54 | 1010.9 |
| 20260506211439 | 55 | 266 | 2.0 | 6.0 | 0.00 | 0.30 | 0.30 | 57 | 1010.9 |
| 20260506210936 | 55 | 342 | 1.0 | 6.0 | 0.00 | 0.30 | 0.30 | 56 | 1010.7 |
| 20260506210433 | 55 | 331 | 2.0 | 7.0 | 0.00 | 0.30 | 0.30 | 54 | 1010.9 |
| 20260506205930 | 56 | 340 | 4.0 | 9.0 | 0.00 | 0.30 | 0.30 | 54 | 1010.6 |
| 20260506205426 | 56 | 238 | 4.0 | 9.0 | 0.00 | 0.30 | 0.30 | 54 | 1010.6 |
| 20260506204922 | 56 | 3 | 2.0 | 6.0 | 0.00 | 0.30 | 0.30 | 55 | 1010.6 |
| 20260506204421 | 56 | 342 | 2.0 | 3.0 | 0.00 | 0.30 | 0.30 | 56 | 1010.6 |
| 20260506203918 | 57 | 300 | 5.0 | 8.0 | 0.00 | 0.30 | 0.30 | 54 | 1010.6 |
| 20260506203415 | 56 | 293 | 4.0 | 7.0 | 0.00 | 0.30 | 0.30 | 54 | 1010.6 |
| 20260506202911 | 57 | 326 | 4.0 | 5.0 | 0.00 | 0.30 | 0.30 | 53 | 1010.5 |
| 20260506202409 | 57 | 355 | 1.0 | 6.0 | 0.00 | 0.30 | 0.30 | 52 | 1010.5 |
| 20260506201905 | 58 | 237 | 5.0 | 6.0 | 0.00 | 0.30 | 0.30 | 53 | 1010.4 |
| 20260506201403 | 57 | 351 | 1.0 | 6.0 | 0.00 | 0.30 | 0.30 | 52 | 1010.4 |
| 20260506200859 | 58 | 318 | 2.0 | 5.0 | 0.00 | 0.30 | 0.30 | 51 | 1010.6 |
| 20260506200355 | 58 | 344 | 6.0 | 7.0 | 0.00 | 0.30 | 0.30 | 52 | 1010.4 |
| 20260506195851 | 58 | 349 | 0.0 | 3.0 | 0.00 | 0.30 | 0.30 | 53 | 1010.3 |
| 20260506195349 | 58 | 351 | 3.0 | 8.0 | 0.00 | 0.30 | 0.30 | 52 | 1010.3 |
| 20260506194846 | 58 | 333 | 2.0 | 5.0 | 0.00 | 0.30 | 0.30 | 54 | 1010.5 |
| 20260506194342 | 59 | 6 | 2.0 | 6.0 | 0.00 | 0.30 | 0.30 | 52 | 1010.4 |
| 20260506193840 | 58 | 335 | 1.0 | 5.0 | 0.00 | 0.30 | 0.30 | 54 | 1010.4 |
| 20260506193336 | 58 | 55 | 3.0 | 6.0 | 0.00 | 0.30 | 0.30 | 53 | 1010.3 |
| 20260506192833 | 59 | 340 | 2.0 | 6.0 | 0.00 | 0.30 | 0.30 | 50 | 1010.3 |
| 20260506192330 | 60 | 335 | 2.0 | 3.0 | 0.00 | 0.30 | 0.30 | 54 | 1010.1 |
| 20260506191827 | 59 | 357 | 2.0 | 5.0 | 0.00 | 0.30 | 0.30 | 52 | 1010.2 |
| 20260506191323 | 59 | 303 | 3.0 | 7.0 | 0.00 | 0.30 | 0.30 | 53 | 1010.6 |
| 20260506190820 | 59 | 39 | 2.0 | 3.0 | 0.00 | 0.30 | 0.30 | 52 | 1010.6 |
| 20260506190316 | 58 | 13 | 4.0 | 6.0 | 0.00 | 0.30 | 0.30 | 52 | 1010.4 |
| 20260506185814 | 58 | 49 | 6.0 | 8.0 | 0.00 | 0.30 | 0.30 | 53 | 1010.2 |
| 20260506185311 | 59 | 345 | 4.0 | 5.0 | 0.00 | 0.30 | 0.30 | 50 | 1010.5 |
| 20260506184808 | 59 | 231 | 7.0 | 9.0 | 0.00 | 0.30 | 0.30 | 51 | 1010.6 |
| 20260506184305 | 58 | 321 | 2.0 | 5.0 | 0.00 | 0.30 | 0.30 | 52 | 1010.6 |
| 20260506183802 | 57 | 307 | 3.0 | 7.0 | 0.00 | 0.30 | 0.30 | 54 | 1010.5 |
| 20260506183257 | 57 | 257 | 5.0 | 7.0 | 0.00 | 0.30 | 0.30 | 52 | 1010.5 |
| 20260506182754 | 58 | 293 | 4.0 | 11.0 | 0.00 | 0.30 | 0.30 | 54 | 1010.4 |
| 20260506182251 | 57 | 351 | 2.0 | 6.0 | 0.00 | 0.30 | 0.30 | 54 | 1010.5 |
| 20260506181749 | 57 | 296 | 1.0 | 7.0 | 0.00 | 0.30 | 0.30 | 54 | 1010.5 |
| 20260506181247 | 57 | 1 | 2.0 | 6.0 | 0.00 | 0.30 | 0.30 | 53 | 1010.4 |
| 20260506180744 | 57 | 7 | 2.0 | 5.0 | 0.00 | 0.30 | 0.30 | 54 | 1010.7 |
| 20260506180239 | 57 | 302 | 6.0 | 8.0 | 0.00 | 0.30 | 0.30 | 53 | 1010.5 |
| 20260506175736 | 57 | 1 | 5.0 | 10.0 | 0.00 | 0.30 | 0.30 | 53 | 1010.7 |
| 20260506175233 | 57 | 268 | 5.0 | 8.0 | 0.00 | 0.30 | 0.30 | 52 | 1010.8 |
| 20260506174731 | 56 | 318 | 2.0 | 6.0 | 0.00 | 0.30 | 0.30 | 52 | 1010.8 |
| 20260506174227 | 57 | 358 | 1.0 | 6.0 | 0.00 | 0.30 | 0.30 | 52 | 1010.7 |
| 20260506173725 | 58 | 347 | 3.0 | 6.0 | 0.00 | 0.30 | 0.30 | 52 | 1010.7 |
| 20260506173222 | 58 | 349 | 1.0 | 6.0 | 0.00 | 0.30 | 0.30 | 51 | 1010.8 |
| 20260506172719 | 57 | 304 | 4.0 | 7.0 | 0.00 | 0.30 | 0.30 | 51 | 1010.7 |
| 20260506172215 | 57 | 4 | 1.0 | 13.0 | 0.00 | 0.30 | 0.30 | 53 | 1010.8 |
| 20260506171713 | 58 | 341 | 7.0 | 13.0 | 0.00 | 0.30 | 0.30 | 51 | 1010.8 |
| 20260506171210 | 57 | 338 | 5.0 | 11.0 | 0.00 | 0.30 | 0.30 | 55 | 1010.4 |
| 20260506170707 | 57 | 257 | 3.0 | 6.0 | 0.00 | 0.30 | 0.30 | 54 | 1010.3 |
| 20260506170204 | 56 | 303 | 5.0 | 9.0 | 0.00 | 0.30 | 0.30 | 52 | 1010.4 |
| 20260506165702 | 56 | 14 | 6.0 | 8.0 | 0.00 | 0.30 | 0.30 | 55 | 1010.3 |
| 20260506165159 | 57 | 283 | 5.0 | 9.0 | 0.00 | 0.30 | 0.30 | 58 | 1010.8 |
| 20260506164656 | 56 | 357 | 3.0 | 8.0 | 0.00 | 0.30 | 0.30 | 59 | 1011.0 |
| 20260506164153 | 55 | 327 | 5.0 | 8.0 | 0.00 | 0.30 | 0.30 | 58 | 1010.9 |
| 20260506163649 | 57 | 323 | 4.0 | 11.0 | 0.00 | 0.30 | 0.30 | 63 | 1010.7 |
| 20260506163145 | 56 | 333 | 2.0 | 6.0 | 0.00 | 0.30 | 0.30 | 56 | 1010.6 |
| 20260506162641 | 55 | 349 | 1.0 | 5.0 | 0.00 | 0.30 | 0.30 | 61 | 1010.5 |
| 20260506162138 | 55 | 358 | 1.0 | 5.0 | 0.00 | 0.30 | 0.30 | 63 | 1010.3 |
| 20260506161636 | 54 | 299 | 3.0 | 5.0 | 0.00 | 0.30 | 0.30 | 62 | 1010.6 |
| 20260506161132 | 54 | 13 | 2.0 | 7.0 | 0.00 | 0.30 | 0.30 | 67 | 1010.5 |
| 20260506160630 | 55 | 293 | 5.0 | 5.0 | 0.00 | 0.30 | 0.30 | 69 | 1010.4 |
| 20260506160126 | 55 | 19 | 4.0 | 7.0 | 0.00 | 0.30 | 0.30 | 65 | 1010.3 |
| 20260506155626 | 56 | 6 | 1.0 | 2.0 | 0.00 | 0.30 | 0.30 | 68 | 1010.2 |
| 20260506155122 | 54 | 256 | 6.0 | 7.0 | 0.00 | 0.30 | 0.30 | 70 | 1010.3 |
| 20260506153224 | 53 | 345 | 1.0 | 2.0 | 0.00 | 0.30 | 0.30 | 71 | 1010.1 |
| 20260506152721 | 53 | 337 | 3.0 | 7.0 | 0.00 | 0.30 | 0.30 | 71 | 1009.9 |
| 20260506152219 | 52 | 329 | 2.0 | 2.0 | 0.00 | 0.30 | 0.30 | 72 | 1010.1 |
| 20260506151718 | 51 | 344 | 2.0 | 5.0 | 0.00 | 0.30 | 0.30 | 72 | 1010.1 |
| 20260506151214 | 52 | 0 | 2.0 | 6.0 | 0.00 | 0.30 | 0.30 | 74 | 1010.1 |
| 20260506150710 | 51 | 301 | 6.0 | 9.0 | 0.00 | 0.30 | 0.30 | 77 | 1009.9 |
| 20260506150207 | 51 | 302 | 3.0 | 7.0 | 0.00 | 0.30 | 0.30 | 77 | 1010.0 |
| 20260506145704 | 51 | 306 | 4.0 | 6.0 | 0.00 | 0.30 | 0.30 | 79 | 1009.8 |
| 20260506145201 | 50 | 348 | 2.0 | 5.0 | 0.00 | 0.30 | 0.30 | 80 | 1009.9 |
| 20260506144659 | 50 | 326 | 3.0 | 3.0 | 0.00 | 0.30 | 0.30 | 82 | 1010.1 |
| 20260506144155 | 50 | 257 | 5.0 | 6.0 | 0.00 | 0.30 | 0.30 | 84 | 1009.9 |
| 20260506143653 | 50 | 343 | 3.0 | 7.0 | 0.00 | 0.30 | 0.30 | 84 | 1009.7 |
| 20260506143150 | 50 | 356 | 2.0 | 5.0 | 0.00 | 0.30 | 0.30 | 84 | 1009.5 |
| 20260506142649 | 50 | 289 | 4.0 | 6.0 | 0.00 | 0.30 | 0.30 | 84 | 1009.4 |
| 20260506142146 | 50 | 349 | 1.0 | 6.0 | 0.00 | 0.30 | 0.30 | 84 | 1009.0 |
| 20260506141644 | 50 | 351 | 1.0 | 3.0 | 0.00 | 0.30 | 0.30 | 84 | 1009.3 |
| 20260506141142 | 49 | 1 | 1.0 | 3.0 | 0.00 | 0.30 | 0.30 | 86 | 1009.1 |
| 20260506140639 | 48 | 22 | 2.0 | 6.0 | 0.00 | 0.30 | 0.30 | 89 | 1009.3 |
| 20260506140136 | 47 | 332 | 1.0 | 5.0 | 0.00 | 0.30 | 0.30 | 92 | 1009.2 |
| 20260506135633 | 47 | 1 | 1.0 | 7.0 | 0.00 | 0.30 | 0.30 | 93 | 1008.7 |
| 20260506135129 | 47 | 337 | 1.0 | 2.0 | 0.00 | 0.30 | 0.30 | 93 | 1008.9 |
| 20260506134626 | 46 | 271 | 4.0 | 5.0 | 0.00 | 0.30 | 0.30 | 93 | 1008.9 |
| 20260506134122 | 47 | 62 | 5.0 | 9.0 | 0.00 | 0.30 | 0.30 | 93 | 1008.8 |
| 20260506133619 | 47 | 315 | 3.0 | 3.0 | 0.00 | 0.30 | 0.30 | 93 | 1008.7 |
| 20260506133116 | 48 | 346 | 1.0 | 2.0 | 0.00 | 0.30 | 0.30 | 93 | 1008.4 |
| 20260506132614 | 47 | 356 | 0.0 | 2.0 | 0.00 | 0.30 | 0.30 | 93 | 1008.6 |
| 20260506132111 | 47 | 4 | 1.0 | 3.0 | 0.00 | 0.30 | 0.30 | 93 | 1008.6 |
| 20260506131608 | 47 | 2 | 0.0 | 2.0 | 0.00 | 0.30 | 0.30 | 93 | 1008.7 |
| 20260506131104 | 47 | 357 | 2.0 | 2.0 | 0.00 | 0.30 | 0.30 | 93 | 1008.6 |
| 20260506130601 | 46 | 357 | 1.0 | 5.0 | 0.00 | 0.30 | 0.30 | 93 | 1008.6 |
| 20260506130059 | 46 | 318 | 3.0 | 6.0 | 0.00 | 0.30 | 0.30 | 93 | 1008.7 |
| 20260506125557 | 46 | 355 | 1.0 | 2.0 | 0.00 | 0.30 | 0.30 | 93 | 1008.9 |
| 20260506125054 | 46 | 353 | 1.0 | 2.0 | 0.00 | 0.30 | 0.30 | 93 | 1008.8 |
| 20260506124552 | 46 | 358 | 2.0 | 2.0 | 0.00 | 0.30 | 0.30 | 93 | 1008.1 |
| 20260506124049 | 46 | 20 | 2.0 | 3.0 | 0.00 | 0.30 | 0.30 | 93 | 1007.8 |
| 20260506123547 | 47 | 26 | 2.0 | 3.0 | 0.00 | 0.30 | 0.30 | 93 | 1007.9 |
| 20260506123045 | 46 | 324 | 2.0 | 2.0 | 0.00 | 0.30 | 0.30 | 93 | 1008.0 |
| 20260506122541 | 46 | 333 | 2.0 | 2.0 | 0.00 | 0.30 | 0.30 | 93 | 1008.1 |
| 20260506122040 | 46 | 358 | 0.0 | 1.0 | 0.00 | 0.30 | 0.30 | 93 | 1007.8 |
| 20260506121537 | 46 | 333 | 1.0 | 1.0 | 0.00 | 0.30 | 0.30 | 93 | 1007.7 |
| 20260506121033 | 46 | 356 | 1.0 | 3.0 | 0.00 | 0.30 | 0.30 | 93 | 1007.9 |
| 20260506120531 | 46 | 337 | 2.0 | 3.0 | 0.00 | 0.30 | 0.30 | 93 | 1007.8 |
| 20260506120028 | 46 | 16 | 0.0 | 1.0 | 0.00 | 0.30 | 0.30 | 93 | 1007.5 |
| 20260506115526 | 45 | 282 | 3.0 | 5.0 | 0.00 | 0.30 | 0.30 | 93 | 1007.9 |
| 20260506115024 | 45 | 12 | 0.0 | 2.0 | 0.00 | 0.30 | 0.30 | 93 | 1008.1 |
| 20260506114521 | 45 | 356 | 1.0 | 2.0 | 0.00 | 0.30 | 0.30 | 93 | 1008.0 |
| 20260506114020 | 45 | 12 | 1.0 | 2.0 | 0.00 | 0.30 | 0.30 | 93 | 1007.4 |
| 20260506113517 | 45 | 358 | 1.0 | 2.0 | 0.00 | 0.30 | 0.30 | 93 | 1007.6 |
| 20260506113014 | 45 | 343 | 0.0 | 1.0 | 0.00 | 0.30 | 0.30 | 93 | 1007.4 |
| 20260506112511 | 45 | 343 | 1.0 | 5.0 | 0.00 | 0.30 | 0.30 | 93 | 1007.4 |
| 20260506112008 | 45 | 340 | 0.0 | 2.0 | 0.05 | 0.30 | 0.30 | 93 | 1006.9 |
| 20260506111506 | 45 | 66 | 3.0 | 6.0 | 0.05 | 0.30 | 0.30 | 93 | 1006.6 |
| 20260506111003 | 45 | 15 | 1.0 | 5.0 | 0.00 | 0.29 | 0.29 | 93 | 1006.3 |
| 20260506110501 | 45 | 0 | 1.0 | 7.0 | 0.00 | 0.29 | 0.29 | 93 | 1006.7 |
| 20260506105957 | 45 | 354 | 2.0 | 5.0 | 0.00 | 0.29 | 0.29 | 93 | 1006.8 |
| 20260506105453 | 45 | 14 | 3.0 | 5.0 | 0.00 | 0.29 | 0.29 | 93 | 1007.0 |
| 20260506104951 | 46 | 348 | 1.0 | 2.0 | 0.00 | 0.29 | 0.29 | 93 | 1007.0 |
| 20260506104449 | 46 | 351 | 1.0 | 2.0 | 0.00 | 0.29 | 0.29 | 93 | 1007.1 |
| 20260506103947 | 46 | 336 | 0.0 | 5.0 | 0.00 | 0.29 | 0.29 | 93 | 1006.8 |
| 20260506103444 | 46 | 359 | 0.0 | 2.0 | 0.00 | 0.29 | 0.29 | 93 | 1006.7 |
| 20260506102940 | 46 | 3 | 0.0 | 1.0 | 0.00 | 0.29 | 0.29 | 93 | 1006.1 |
| 20260506102438 | 46 | 358 | 0.0 | 1.0 | 0.00 | 0.29 | 0.29 | 93 | 1006.1 |
| 20260506101935 | 46 | 356 | 1.0 | 2.0 | 0.00 | 0.29 | 0.29 | 93 | 1006.1 |
| 20260506101432 | 46 | 336 | 2.0 | 2.0 | 0.00 | 0.29 | 0.29 | 93 | 1005.9 |
| 20260506100929 | 45 | 357 | 1.0 | 1.0 | 0.00 | 0.29 | 0.29 | 93 | 1005.3 |
| 20260506100427 | 45 | 348 | 0.0 | 5.0 | 0.00 | 0.29 | 0.29 | 93 | 1005.4 |
| 20260506095925 | 46 | 57 | 1.0 | 2.0 | 0.00 | 0.29 | 0.29 | 93 | 1005.3 |
| 20260506095424 | 46 | 95 | 2.0 | 5.0 | 0.00 | 0.29 | 0.29 | 93 | 1005.7 |
| 20260506094919 | 46 | 355 | 2.0 | 5.0 | 0.00 | 0.29 | 0.29 | 93 | 1005.6 |
| 20260506094418 | 46 | 349 | 1.0 | 6.0 | 0.00 | 0.29 | 0.29 | 93 | 1005.8 |
| 20260506093915 | 46 | 355 | 0.0 | 3.0 | 0.00 | 0.29 | 0.29 | 93 | 1005.9 |
| 20260506093413 | 46 | 45 | 3.0 | 3.0 | 0.00 | 0.29 | 0.29 | 93 | 1005.5 |
| 20260506092911 | 46 | 328 | 1.0 | 7.0 | 0.00 | 0.29 | 0.29 | 93 | 1005.7 |
| 20260506092409 | 46 | 312 | 3.0 | 5.0 | 0.07 | 0.29 | 0.29 | 93 | 1005.7 |
| 20260506091904 | 47 | 352 | 3.0 | 5.0 | 0.07 | 0.29 | 0.29 | 93 | 1005.6 |
| 20260506091403 | 47 | 59 | 2.0 | 3.0 | 0.05 | 0.28 | 0.28 | 93 | 1005.1 |
| 20260506090900 | 47 | 338 | 2.0 | 7.0 | 0.12 | 0.28 | 0.28 | 93 | 1005.3 |
| 20260506090358 | 47 | 357 | 1.0 | 8.0 | 0.07 | 0.27 | 0.27 | 93 | 1005.2 |
| 20260506085854 | 48 | 19 | 1.0 | 8.0 | 0.00 | 0.26 | 0.26 | 93 | 1005.8 |
| 20260506085350 | 48 | 3 | 2.0 | 6.0 | 0.05 | 0.26 | 0.26 | 93 | 1005.6 |
| 20260506084847 | 48 | 354 | 1.0 | 3.0 | 0.05 | 0.26 | 0.26 | 93 | 1005.7 |
| 20260506084344 | 48 | 7 | 2.0 | 3.0 | 0.07 | 0.25 | 0.25 | 93 | 1005.4 |
| 20260506083840 | 48 | 17 | 0.0 | 6.0 | 0.14 | 0.25 | 0.25 | 93 | 1005.3 |
| 20260506083338 | 48 | 353 | 1.0 | 2.0 | 0.19 | 0.24 | 0.24 | 93 | 1005.6 |
| 20260506082835 | 48 | 7 | 3.0 | 5.0 | 0.07 | 0.22 | 0.22 | 93 | 1005.6 |
| 20260506082332 | 48 | 324 | 2.0 | 9.0 | 0.05 | 0.21 | 0.21 | 93 | 1005.4 |
| 20260506081828 | 49 | 310 | 4.0 | 9.0 | 0.05 | 0.21 | 0.21 | 93 | 1005.2 |
| 20260506081326 | 49 | 348 | 1.0 | 5.0 | 0.00 | 0.20 | 0.20 | 93 | 1005.4 |
| 20260506080823 | 49 | 325 | 3.0 | 3.0 | 0.00 | 0.20 | 0.20 | 93 | 1005.2 |
| 20260506080319 | 49 | 337 | 3.0 | 6.0 | 0.00 | 0.20 | 0.20 | 93 | 1005.2 |
| 20260506073304 | 50 | 6 | 1.0 | 2.0 | 0.07 | 0.20 | 0.20 | 93 | 1004.4 |
| 20260506072800 | 50 | 18 | 2.0 | 3.0 | 0.12 | 0.20 | 0.20 | 93 | 1004.8 |
| 20260506072258 | 50 | 318 | 1.0 | 2.0 | 0.12 | 0.19 | 0.19 | 93 | 1004.6 |
| 20260506071755 | 50 | 357 | 1.0 | 2.0 | 0.07 | 0.18 | 0.18 | 93 | 1004.4 |
| 20260506071254 | 50 | 352 | 1.0 | 2.0 | 0.05 | 0.17 | 0.17 | 93 | 1004.6 |
| 20260506070750 | 50 | 249 | 2.0 | 5.0 | 0.05 | 0.17 | 0.17 | 93 | 1004.6 |
| 20260506070247 | 51 | 355 | 3.0 | 6.0 | 0.07 | 0.16 | 0.16 | 93 | 1004.6 |
| 20260506062224 | 52 | 346 | 0.0 | 0.0 | 0.05 | 0.10 | 0.10 | 93 | 1004.4 |
| 20260506061720 | 52 | 344 | 0.0 | 3.0 | 0.00 | 0.09 | 0.09 | 93 | 1004.6 |
| 20260506061218 | 52 | 341 | 1.0 | 5.0 | 0.07 | 0.09 | 0.09 | 93 | 1004.6 |
| 20260506060716 | 52 | 337 | 1.0 | 2.0 | 0.12 | 0.09 | 0.09 | 93 | 1004.7 |
| 20260506060213 | 53 | 357 | 0.0 | 0.0 | 0.17 | 0.08 | 0.08 | 93 | 1004.4 |
| 20260506051145 | 57 | 328 | 2.0 | 2.0 | 0.00 | 0.00 | 0.00 | 93 | 1005.2 |
| 20260506050643 | 57 | 358 | 0.0 | 0.0 | 0.00 | 0.00 | 0.00 | 93 | 1005.1 |
| 20260506050140 | 57 | 358 | 0.0 | 2.0 | 0.00 | 0.00 | 0.00 | 93 | 1005.1 |
| 20260506045133 | 57 | 18 | 0.0 | 2.0 | 0.00 | 0.00 | 0.00 | 93 | 1005.1 |
| 20260506044631 | 57 | 17 | 0.0 | 0.0 | 0.00 | 0.00 | 0.00 | 93 | 1005.2 |
| 20260506044128 | 57 | 225 | 2.0 | 2.0 | 0.00 | 0.00 | 0.00 | 93 | 1005.5 |
| 20260506043625 | 57 | 11 | 0.0 | 2.0 | 0.00 | 0.00 | 0.00 | 93 | 1005.4 |
| 20260506043123 | 57 | 222 | 2.0 | 2.0 | 0.00 | 0.00 | 0.00 | 93 | 1005.5 |
| 20260506042622 | 57 | 1 | 1.0 | 2.0 | 0.00 | 0.00 | 0.00 | 93 | 1005.4 |
| 20260506042119 | 57 | 137 | 1.0 | 5.0 | 0.00 | 0.00 | 0.00 | 93 | 1005.4 |
| 20260506041618 | 57 | 351 | 1.0 | 2.0 | 0.00 | 0.00 | 0.00 | 93 | 1005.5 |
| 20260506041114 | 57 | 349 | 1.0 | 3.0 | 0.00 | 0.00 | 0.00 | 93 | 1005.7 |
| 20260506040612 | 58 | 313 | 1.0 | 2.0 | 0.07 | 0.00 | 0.00 | 93 | 1005.7 |
| 20260506040108 | 58 | 157 | 2.0 | 3.0 | 0.12 | 0.00 | 0.00 | 93 | 1005.6 |
| 20260506035605 | 58 | 327 | 1.0 | 5.0 | 0.12 | 0.52 | 0.52 | 93 | 1005.9 |
| 20260506035102 | 58 | 348 | 0.0 | 3.0 | 0.12 | 0.51 | 0.51 | 93 | 1006.0 |
| 20260506034559 | 58 | 78 | 1.0 | 2.0 | 0.17 | 0.50 | 0.50 | 93 | 1005.8 |
| 20260506034056 | 58 | 355 | 0.0 | 2.0 | 0.24 | 0.49 | 0.49 | 93 | 1006.1 |
| 20260506033553 | 58 | 59 | 0.0 | 3.0 | 0.19 | 0.47 | 0.47 | 93 | 1006.4 |
| 20260506033050 | 58 | 358 | 0.0 | 2.0 | 0.19 | 0.45 | 0.45 | 93 | 1006.1 |
| 20260506032548 | 58 | 310 | 1.0 | 3.0 | 0.24 | 0.44 | 0.44 | 93 | 1006.1 |
| 20260506032044 | 58 | 307 | 3.0 | 3.0 | 0.19 | 0.42 | 0.42 | 93 | 1006.4 |
| 20260506031542 | 58 | 359 | 0.0 | 2.0 | 0.12 | 0.40 | 0.40 | 93 | 1006.6 |
| 20260506031038 | 58 | 163 | 0.0 | 3.0 | 0.12 | 0.39 | 0.39 | 93 | 1006.5 |
| 20260506030537 | 58 | 330 | 1.0 | 2.0 | 0.12 | 0.38 | 0.38 | 93 | 1006.5 |
| 20260506030034 | 58 | 293 | 1.0 | 1.0 | 0.12 | 0.37 | 0.37 | 93 | 1006.3 |
| 20260506025531 | 58 | 340 | 1.0 | 2.0 | 0.12 | 0.36 | 0.36 | 93 | 1006.3 |
| 20260506025026 | 58 | 346 | 0.0 | 1.0 | 0.12 | 0.35 | 0.35 | 93 | 1006.3 |
| 20260506024524 | 58 | 36 | 0.0 | 1.0 | 0.19 | 0.34 | 0.34 | 93 | 1006.5 |
| 20260506024020 | 58 | 262 | 3.0 | 3.0 | 0.12 | 0.32 | 0.32 | 93 | 1006.7 |
| 20260506023516 | 58 | 357 | 0.0 | 3.0 | 0.17 | 0.31 | 0.31 | 93 | 1006.6 |
| 20260506023014 | 58 | 342 | 0.0 | 1.0 | 0.19 | 0.30 | 0.30 | 93 | 1006.8 |
| 20260506022512 | 59 | 358 | 0.0 | 5.0 | 0.19 | 0.28 | 0.28 | 93 | 1006.7 |
| 20260506022009 | 59 | 330 | 0.0 | 0.0 | 0.17 | 0.26 | 0.26 | 93 | 1006.9 |
| 20260506021506 | 59 | 284 | 3.0 | 3.0 | 0.19 | 0.25 | 0.25 | 93 | 1006.6 |
| 20260506021003 | 59 | 346 | 0.0 | 2.0 | 0.12 | 0.23 | 0.23 | 93 | 1006.5 |
| 20260506020501 | 59 | 0 | 0.0 | 0.0 | 0.17 | 0.22 | 0.22 | 93 | 1006.5 |
| 20260506015957 | 59 | 335 | 0.0 | 3.0 | 0.19 | 0.21 | 0.21 | 93 | 1006.6 |
| 20260506015455 | 59 | 266 | 1.0 | 3.0 | 0.19 | 0.19 | 0.19 | 93 | 1006.6 |
| 20260506014952 | 59 | 358 | 0.0 | 1.0 | 0.17 | 0.18 | 0.18 | 93 | 1006.5 |
| 20260506014449 | 59 | 18 | 0.0 | 2.0 | 0.12 | 0.16 | 0.16 | 93 | 1006.5 |
| 20260506013945 | 59 | 0 | 0.0 | 1.0 | 0.07 | 0.15 | 0.15 | 93 | 1006.3 |
| 20260506013443 | 59 | 295 | 0.0 | 1.0 | 0.07 | 0.14 | 0.14 | 93 | 1006.5 |
| 20260506012939 | 59 | 341 | 0.0 | 0.0 | 0.07 | 0.14 | 0.14 | 93 | 1006.3 |
| 20260506012436 | 59 | 7 | 0.0 | 1.0 | 0.00 | 0.13 | 0.13 | 93 | 1005.9 |
| 20260506011933 | 59 | 28 | 0.0 | 2.0 | 0.00 | 0.13 | 0.13 | 93 | 1006.0 |
| 20260506011430 | 59 | 342 | 0.0 | 0.0 | 0.05 | 0.13 | 0.13 | 93 | 1006.1 |
| 20260506010927 | 59 | 343 | 0.0 | 3.0 | 0.05 | 0.13 | 0.13 | 93 | 1005.9 |
| 20260506010426 | 59 | 356 | 0.0 | 0.0 | 0.00 | 0.12 | 0.12 | 93 | 1005.9 |
| 20260506005922 | 59 | 4 | 0.0 | 1.0 | 0.07 | 0.12 | 0.12 | 93 | 1006.3 |
| 20260506005420 | 59 | 9 | 0.0 | 2.0 | 0.07 | 0.12 | 0.12 | 93 | 1006.6 |
| 20260506004914 | 59 | 2 | 0.0 | 3.0 | 0.00 | 0.11 | 0.11 | 93 | 1006.5 |
| 20260506004413 | 59 | 331 | 0.0 | 1.0 | 0.00 | 0.11 | 0.11 | 93 | 1006.3 |
| 20260506003909 | 59 | 267 | 2.0 | 5.0 | 0.00 | 0.11 | 0.11 | 93 | 1006.5 |
| 20260506003405 | 59 | 244 | 4.0 | 6.0 | 0.00 | 0.11 | 0.11 | 93 | 1006.3 |
| 20260506002902 | 59 | 348 | 0.0 | 3.0 | 0.00 | 0.11 | 0.11 | 93 | 1006.5 |
| 20260506002358 | 59 | 338 | 0.0 | 1.0 | 0.00 | 0.11 | 0.11 | 93 | 1006.6 |
| 20260506001853 | 59 | 348 | 0.0 | 0.0 | 0.00 | 0.11 | 0.11 | 93 | 1006.4 |
| 20260506001350 | 59 | 350 | 0.0 | 1.0 | 0.00 | 0.11 | 0.11 | 93 | 1006.3 |
| 20260506000847 | 59 | 168 | 1.0 | 2.0 | 0.00 | 0.11 | 0.11 | 93 | 1006.5 |
| 20260506000346 | 59 | 335 | 1.0 | 3.0 | 0.00 | 0.11 | 0.11 | 93 | 1006.3 |
| 20260505235842 | 59 | 297 | 1.0 | 2.0 | 0.00 | 0.11 | 0.11 | 93 | 1006.4 |
| 20260505235339 | 59 | 0 | 0.0 | 2.0 | 0.00 | 0.11 | 0.11 | 93 | 1006.4 |
| 20260505234836 | 59 | 355 | 0.0 | 1.0 | 0.00 | 0.11 | 0.11 | 93 | 1006.4 |
| 20260505234334 | 59 | 292 | 1.0 | 2.0 | 0.00 | 0.11 | 0.11 | 93 | 1006.4 |
| 20260505233831 | 59 | 333 | 1.0 | 2.0 | 0.00 | 0.11 | 0.11 | 93 | 1006.3 |
| 20260505233329 | 59 | 330 | 0.0 | 3.0 | 0.00 | 0.11 | 0.11 | 93 | 1006.7 |
| 20260505232826 | 59 | 22 | 1.0 | 1.0 | 0.05 | 0.11 | 0.11 | 93 | 1006.7 |
| 20260505232323 | 59 | 230 | 2.0 | 5.0 | 0.05 | 0.11 | 0.11 | 93 | 1006.5 |
| 20260505231819 | 59 | 355 | 0.0 | 2.0 | 0.00 | 0.10 | 0.10 | 93 | 1006.7 |
| 20260505231318 | 59 | 172 | 1.0 | 3.0 | 0.00 | 0.10 | 0.10 | 93 | 1006.9 |
| 20260505230816 | 59 | 245 | 3.0 | 3.0 | 0.00 | 0.10 | 0.10 | 93 | 1006.8 |
| 20260505230313 | 59 | 349 | 1.0 | 5.0 | 0.07 | 0.10 | 0.10 | 93 | 1006.6 |
| 20260505225809 | 59 | 292 | 3.0 | 3.0 | 0.07 | 0.10 | 0.10 | 93 | 1006.8 |
| 20260505225307 | 59 | 278 | 4.0 | 6.0 | 0.12 | 0.09 | 0.09 | 93 | 1007.0 |
| 20260505224801 | 59 | 229 | 2.0 | 5.0 | 0.28 | 0.09 | 0.09 | 93 | 1006.6 |
| 20260505224259 | 60 | 277 | 2.0 | 7.0 | 0.24 | 0.07 | 0.07 | 93 | 1006.8 |
| 20260505223756 | 60 | 316 | 3.0 | 8.0 | 0.14 | 0.04 | 0.04 | 93 | 1006.9 |
| 20260505223253 | 60 | 235 | 6.0 | 9.0 | 0.12 | 0.03 | 0.03 | 93 | 1006.9 |
| 20260505222749 | 60 | 337 | 5.0 | 10.0 | 0.12 | 0.02 | 0.02 | 92 | 1006.7 |
| 20260505222246 | 61 | 281 | 7.0 | 9.0 | 0.07 | 0.01 | 0.01 | 90 | 1006.5 |
| 20260505221743 | 62 | 255 | 10.0 | 15.0 | 0.00 | 0.00 | 0.00 | 87 | 1006.7 |
| 20260505221239 | 63 | 284 | 4.0 | 6.0 | 0.00 | 0.00 | 0.00 | 82 | 1006.4 |
| 20260505220736 | 68 | 266 | 8.0 | 13.0 | 0.00 | 0.00 | 0.00 | 67 | 1006.6 |
| 20260505220233 | 69 | 224 | 6.0 | 9.0 | 0.00 | 0.00 | 0.00 | 63 | 1005.7 |
| 20260505215732 | 69 | 198 | 7.0 | 9.0 | 0.00 | 0.00 | 0.00 | 61 | 1005.9 |
| 20260505215229 | 69 | 226 | 4.0 | 9.0 | 0.00 | 0.00 | 0.00 | 61 | 1005.7 |